createdAt,value
2022-10-22T00:00:57.806Z,50.866894
2022-10-22T00:01:57.824Z,50.866882
2022-10-22T00:02:57.873Z,50.866821
2022-10-22T00:03:57.791Z,50.866821
2022-10-22T00:04:57.792Z,50.866783
2022-10-22T00:05:57.792Z,50.866810
2022-10-22T00:06:57.762Z,50.866913
2022-10-22T00:07:58.744Z,50.866909
2022-10-22T00:08:57.804Z,50.866825
2022-10-22T00:09:57.734Z,50.866848
2022-10-22T00:10:57.741Z,50.866913
2022-10-22T00:11:57.714Z,50.866863
2022-10-22T00:12:57.733Z,50.866833
2022-10-22T00:13:57.709Z,50.866863
2022-10-22T00:14:57.694Z,50.866905
2022-10-22T00:15:58.691Z,50.866821
2022-10-22T00:16:57.676Z,50.866650
2022-10-22T00:17:57.673Z,50.866741
2022-10-22T00:18:57.670Z,50.866734
2022-10-22T00:19:57.691Z,50.866745
2022-10-22T00:20:57.645Z,50.866730
2022-10-22T00:21:57.657Z,50.866623
2022-10-22T00:22:57.640Z,50.866611
2022-10-22T00:23:57.640Z,50.866726
2022-10-22T00:24:57.622Z,50.866722
2022-10-22T00:25:57.605Z,50.866665
2022-10-22T00:26:57.598Z,50.866795
2022-10-22T00:27:57.591Z,50.866680
2022-10-22T00:31:59.565Z,50.867023
2022-10-22T00:32:59.544Z,50.866859
2022-10-22T00:33:59.552Z,50.866852
2022-10-22T00:34:59.538Z,50.866772
2022-10-22T00:35:59.542Z,50.866756
2022-10-22T00:36:59.520Z,50.866653
2022-10-22T00:37:59.522Z,50.866703
2022-10-22T00:38:59.501Z,50.866871
2022-10-22T00:39:59.498Z,50.866844
2022-10-22T00:40:59.484Z,50.866844
2022-10-22T00:41:59.493Z,50.866917
2022-10-22T00:42:59.487Z,50.867035
2022-10-22T00:43:59.465Z,50.867153
2022-10-22T00:44:59.459Z,50.866993
2022-10-22T00:45:59.445Z,50.866875
2022-10-22T00:46:59.449Z,50.866920
2022-10-22T00:47:59.434Z,50.866917
2022-10-22T00:48:59.426Z,50.867008
2022-10-22T00:49:59.497Z,50.866959
2022-10-22T00:50:59.416Z,50.866894
2022-10-22T00:51:59.409Z,50.866928
2022-10-22T00:52:59.404Z,50.867126
2022-10-22T00:53:59.423Z,50.867016
2022-10-22T00:54:59.379Z,50.867065
2022-10-22T00:55:59.379Z,50.867054
2022-10-22T00:56:59.362Z,50.867027
2022-10-22T00:57:59.355Z,50.866985
2022-10-22T00:58:59.422Z,50.867031
2022-10-22T00:59:59.341Z,50.867016
2022-10-22T01:00:59.377Z,50.866932
2022-10-22T01:01:59.316Z,50.866890
2022-10-22T01:02:59.316Z,50.866955
2022-10-22T01:03:59.300Z,50.866928
2022-10-22T01:04:59.303Z,50.866894
2022-10-22T01:05:59.300Z,50.866875
2022-10-22T01:06:59.282Z,50.866966
2022-10-22T01:07:59.309Z,50.867020
2022-10-22T01:08:59.281Z,50.866955
2022-10-22T01:09:59.271Z,50.866940
2022-10-22T01:10:59.264Z,50.866920
2022-10-22T01:11:59.260Z,50.866837
2022-10-22T01:12:59.232Z,50.866886
2022-10-22T01:13:59.228Z,50.867001
2022-10-22T01:14:59.235Z,50.867039
2022-10-22T01:15:59.214Z,50.867172
2022-10-22T01:16:59.206Z,50.867222
2022-10-22T01:17:59.205Z,50.867085
2022-10-22T01:18:59.185Z,50.867104
2022-10-22T01:19:59.175Z,50.867100
2022-10-22T01:20:59.165Z,50.867149
2022-10-22T01:21:59.166Z,50.866951
2022-10-22T01:22:59.165Z,50.866718
2022-10-22T01:23:59.179Z,50.866692
2022-10-22T01:24:59.141Z,50.866676
2022-10-22T01:25:59.130Z,50.866684
2022-10-22T01:26:59.132Z,50.866711
2022-10-22T01:27:59.121Z,50.866917
2022-10-22T01:28:59.116Z,50.866859
2022-10-22T01:29:59.101Z,50.866829
2022-10-22T01:30:59.088Z,50.866741
2022-10-22T01:31:59.095Z,50.866760
2022-10-22T01:32:59.064Z,50.866726
2022-10-22T01:33:59.062Z,50.866753
2022-10-22T01:34:59.069Z,50.866745
2022-10-22T01:35:59.052Z,50.866890
2022-10-22T01:36:59.045Z,50.866783
2022-10-22T01:37:59.098Z,50.866829
2022-10-22T01:38:59.053Z,50.866856
2022-10-22T01:39:59.062Z,50.866913
2022-10-22T01:40:59.025Z,50.866814
2022-10-22T01:41:59.005Z,50.866829
2022-10-22T01:42:58.996Z,50.866776
2022-10-22T01:43:58.979Z,50.866848
2022-10-22T01:44:58.994Z,50.866756
2022-10-22T01:45:58.971Z,50.866730
2022-10-22T01:46:58.962Z,50.866764
2022-10-22T01:47:58.964Z,50.866722
2022-10-22T01:48:58.945Z,50.866749
2022-10-22T01:49:58.941Z,50.866749
2022-10-22T01:50:58.934Z,50.866737
2022-10-22T01:51:59.448Z,50.866741
2022-10-22T01:52:58.923Z,50.866764
2022-10-22T01:53:58.902Z,50.866726
2022-10-22T01:54:58.908Z,50.866703
2022-10-22T01:55:58.899Z,50.866714
2022-10-22T01:56:58.881Z,50.866707
2022-10-22T01:57:58.882Z,50.866795
2022-10-22T01:58:58.873Z,50.866734
2022-10-22T01:59:58.866Z,50.866684
2022-10-22T02:00:58.879Z,50.866680
2022-10-22T02:01:58.850Z,50.866695
2022-10-22T02:02:58.867Z,50.866863
2022-10-22T02:03:58.830Z,50.866688
2022-10-22T02:04:58.832Z,50.866646
2022-10-22T02:05:58.812Z,50.866653
2022-10-22T02:06:58.826Z,50.866707
2022-10-22T02:07:58.802Z,50.866745
2022-10-22T02:08:58.831Z,50.866688
2022-10-22T02:09:58.786Z,50.866665
2022-10-22T02:10:58.778Z,50.866657
2022-10-22T02:11:58.821Z,50.866684
2022-10-22T02:12:58.765Z,50.866688
2022-10-22T02:13:58.818Z,50.866707
2022-10-22T02:14:58.749Z,50.866676
2022-10-22T02:15:58.742Z,50.866661
2022-10-22T02:16:58.731Z,50.866688
2022-10-22T02:17:58.730Z,50.866676
2022-10-22T02:18:58.734Z,50.866688
2022-10-22T02:19:58.716Z,50.866653
2022-10-22T02:20:58.711Z,50.866646
2022-10-22T02:21:58.687Z,50.866638
2022-10-22T02:22:58.695Z,50.866810
2022-10-22T02:23:58.681Z,50.866764
2022-10-22T02:24:58.662Z,50.866737
2022-10-22T02:25:58.664Z,50.866699
2022-10-22T02:26:58.648Z,50.866699
2022-10-22T02:27:58.639Z,50.866806
2022-10-22T02:28:58.640Z,50.866871
2022-10-22T02:29:58.636Z,50.866821
2022-10-22T02:30:58.622Z,50.866768
2022-10-22T02:31:58.620Z,50.866756
2022-10-22T02:32:58.613Z,50.866867
2022-10-22T02:33:58.602Z,50.866894
2022-10-22T02:34:58.596Z,50.866859
2022-10-22T02:35:58.598Z,50.866669
2022-10-22T02:36:58.572Z,50.866585
2022-10-22T02:37:58.573Z,50.866722
2022-10-22T02:38:58.564Z,50.866817
2022-10-22T02:39:58.564Z,50.866852
2022-10-22T02:40:58.538Z,50.866737
2022-10-22T02:41:58.537Z,50.866825
2022-10-22T02:42:58.528Z,50.866882
2022-10-22T02:43:58.520Z,50.866886
2022-10-22T02:44:58.522Z,50.866959
2022-10-22T02:45:58.515Z,50.866863
2022-10-22T02:46:58.499Z,50.866779
2022-10-22T02:47:58.507Z,50.866779
2022-10-22T02:48:58.521Z,50.866821
2022-10-22T02:49:58.492Z,50.866798
2022-10-22T02:50:58.478Z,50.866802
2022-10-22T02:51:58.464Z,50.866772
2022-10-22T02:52:58.452Z,50.866760
2022-10-22T02:53:58.451Z,50.866756
2022-10-22T02:54:58.488Z,50.866779
2022-10-22T02:55:58.436Z,50.866783
2022-10-22T02:56:58.432Z,50.866764
2022-10-22T02:57:58.425Z,50.866734
2022-10-22T02:58:58.406Z,50.866753
2022-10-22T02:59:58.400Z,50.866783
2022-10-22T03:00:58.422Z,50.866756
2022-10-22T03:01:58.385Z,50.866772
2022-10-22T03:02:58.382Z,50.866768
2022-10-22T03:03:58.375Z,50.866749
2022-10-22T03:04:58.366Z,50.866783
2022-10-22T03:05:58.352Z,50.866776
2022-10-22T03:06:58.341Z,50.866783
2022-10-22T03:07:58.330Z,50.866802
2022-10-22T03:08:58.373Z,50.866798
2022-10-22T03:09:58.497Z,50.866783
2022-10-22T03:10:58.310Z,50.866753
2022-10-22T03:11:58.307Z,50.866772
2022-10-22T03:12:58.302Z,50.866734
2022-10-22T03:13:58.308Z,50.866749
2022-10-22T03:14:58.288Z,50.866833
2022-10-22T03:15:58.274Z,50.866829
2022-10-22T03:16:58.258Z,50.866798
2022-10-22T03:17:58.259Z,50.866764
2022-10-22T03:18:58.265Z,50.866802
2022-10-22T03:19:58.235Z,50.866848
2022-10-22T03:20:58.228Z,50.866879
2022-10-22T03:21:58.223Z,50.866829
2022-10-22T03:22:58.219Z,50.866817
2022-10-22T03:23:58.202Z,50.866856
2022-10-22T03:24:58.202Z,50.866825
2022-10-22T03:26:58.177Z,50.866783
2022-10-22T03:27:58.179Z,50.866806
2022-10-22T03:28:58.167Z,50.866783
2022-10-22T03:29:58.149Z,50.866791
2022-10-22T03:30:58.151Z,50.866814
2022-10-22T03:31:58.146Z,50.866783
2022-10-22T03:32:58.149Z,50.866787
2022-10-22T03:33:58.130Z,50.866817
2022-10-22T03:34:58.114Z,50.866817
2022-10-22T03:35:58.118Z,50.866802
2022-10-22T03:36:58.110Z,50.866802
2022-10-22T03:37:58.098Z,50.866772
2022-10-22T03:38:58.084Z,50.866772
2022-10-22T03:39:58.091Z,50.866772
2022-10-22T03:40:58.078Z,50.866787
2022-10-22T03:41:58.070Z,50.866753
2022-10-22T03:42:58.059Z,50.866787
2022-10-22T03:43:58.058Z,50.866840
2022-10-22T03:44:58.047Z,50.866806
2022-10-22T03:45:58.049Z,50.866764
2022-10-22T03:47:00.270Z,50.866768
2022-10-22T03:47:58.019Z,50.866760
2022-10-22T03:48:58.023Z,50.866848
2022-10-22T03:49:58.016Z,50.866798
2022-10-22T03:50:58.009Z,50.866817
2022-10-22T03:51:57.986Z,50.866810
2022-10-22T03:52:57.979Z,50.866798
2022-10-22T03:53:57.972Z,50.866810
2022-10-22T03:54:57.980Z,50.866814
2022-10-22T03:55:57.970Z,50.866806
2022-10-22T03:56:57.941Z,50.866810
2022-10-22T03:57:57.949Z,50.866810
2022-10-22T03:58:57.943Z,50.866821
2022-10-22T03:59:57.937Z,50.866814
2022-10-22T04:00:58.001Z,50.866863
2022-10-22T04:01:57.914Z,50.866936
2022-10-22T04:02:57.899Z,50.866917
2022-10-22T04:03:57.902Z,50.867016
2022-10-22T04:04:57.898Z,50.867020
2022-10-22T04:05:57.885Z,50.867035
2022-10-22T04:06:57.867Z,50.867085
2022-10-22T04:07:57.862Z,50.867222
2022-10-22T04:08:57.893Z,50.867374
2022-10-22T04:09:57.861Z,50.867264
2022-10-22T04:10:57.936Z,50.867317
2022-10-22T04:11:57.826Z,50.866730
2022-10-22T04:12:57.829Z,50.866791
2022-10-22T04:13:57.826Z,50.866741
2022-10-22T04:14:57.823Z,50.866745
2022-10-22T04:15:57.797Z,50.866772
2022-10-22T04:16:57.792Z,50.866703
2022-10-22T04:17:57.814Z,50.866730
2022-10-22T04:18:57.771Z,50.866764
2022-10-22T04:19:57.820Z,50.866692
2022-10-22T04:20:57.760Z,50.866741
2022-10-22T04:21:57.753Z,50.866791
2022-10-22T04:22:57.738Z,50.866764
2022-10-22T04:23:57.729Z,50.866806
2022-10-22T04:24:57.745Z,50.866760
2022-10-22T04:25:57.732Z,50.866764
2022-10-22T04:26:57.711Z,50.866741
2022-10-22T04:27:57.696Z,50.866753
2022-10-22T04:28:57.697Z,50.866840
2022-10-22T04:29:57.678Z,50.866787
2022-10-22T04:30:57.705Z,50.866764
2022-10-22T04:31:57.676Z,50.866749
2022-10-22T04:32:58.501Z,50.866756
2022-10-22T04:33:57.653Z,50.866688
2022-10-22T04:34:57.646Z,50.866749
2022-10-22T04:35:57.634Z,50.866730
2022-10-22T04:36:57.635Z,50.866688
2022-10-22T04:37:57.626Z,50.866730
2022-10-22T04:38:57.616Z,50.866718
2022-10-22T04:39:58.296Z,50.866741
2022-10-22T04:40:57.601Z,50.866745
2022-10-22T04:41:57.608Z,50.866718
2022-10-22T04:42:57.579Z,50.866722
2022-10-22T04:43:57.573Z,50.866749
2022-10-22T04:44:57.566Z,50.866734
2022-10-22T04:46:58.561Z,50.866764
2022-10-22T04:47:57.540Z,50.866722
2022-10-22T04:48:57.545Z,50.866726
2022-10-22T04:49:57.528Z,50.866760
2022-10-22T04:50:58.525Z,50.866741
2022-10-22T04:51:57.514Z,50.866722
2022-10-22T04:52:57.506Z,50.866764
2022-10-22T04:53:57.504Z,50.866741
2022-10-22T04:54:57.512Z,50.866722
2022-10-22T04:55:57.476Z,50.866737
2022-10-22T04:56:57.462Z,50.866745
2022-10-22T04:57:57.531Z,50.866753
2022-10-22T04:58:57.467Z,50.866734
2022-10-22T04:59:57.449Z,50.866730
2022-10-22T05:00:57.493Z,50.866749
2022-10-22T05:01:57.430Z,50.866726
2022-10-22T05:02:57.425Z,50.866745
2022-10-22T05:03:57.433Z,50.866730
2022-10-22T05:04:57.410Z,50.866814
2022-10-22T05:05:57.437Z,50.866787
2022-10-22T05:06:57.409Z,50.866772
2022-10-22T05:07:57.383Z,50.866756
2022-10-22T05:08:57.430Z,50.866745
2022-10-22T05:09:57.387Z,50.866772
2022-10-22T05:10:57.370Z,50.866779
2022-10-22T05:11:57.349Z,50.866779
2022-10-22T05:12:57.337Z,50.866768
2022-10-22T05:13:57.347Z,50.866787
2022-10-22T05:14:57.336Z,50.866787
2022-10-22T05:15:57.314Z,50.866745
2022-10-22T05:16:57.320Z,50.866802
2022-10-22T05:17:57.314Z,50.866795
2022-10-22T05:18:57.293Z,50.866814
2022-10-22T05:19:57.286Z,50.866779
2022-10-22T05:20:57.270Z,50.866917
2022-10-22T05:21:57.268Z,50.866875
2022-10-22T05:22:57.257Z,50.866795
2022-10-22T05:23:57.260Z,50.866776
2022-10-22T05:24:57.260Z,50.866776
2022-10-22T05:25:57.239Z,50.866753
2022-10-22T05:26:57.228Z,50.866779
2022-10-22T05:27:59.614Z,50.866802
2022-10-22T05:28:57.212Z,50.866806
2022-10-22T05:29:57.218Z,50.866768
2022-10-22T05:30:57.211Z,50.866753
2022-10-22T05:31:57.188Z,50.866741
2022-10-22T05:32:57.187Z,50.866684
2022-10-22T05:33:57.176Z,50.866692
2022-10-22T05:34:57.181Z,50.866653
2022-10-22T05:35:57.191Z,50.866707
2022-10-22T05:36:57.141Z,50.866722
2022-10-22T05:38:58.142Z,50.866753
2022-10-22T05:40:06.606Z,50.866802
2022-10-22T05:40:59.145Z,50.866840
2022-10-22T05:41:57.116Z,50.866875
2022-10-22T05:42:57.136Z,50.866917
2022-10-22T05:43:57.091Z,50.866638
2022-10-22T05:44:57.115Z,50.866447
2022-10-22T05:45:57.081Z,50.866478
2022-10-22T05:46:57.072Z,50.866520
2022-10-22T05:47:57.069Z,50.866390
2022-10-22T05:48:57.056Z,50.866547
2022-10-22T05:49:57.042Z,50.866547
2022-10-22T05:50:57.030Z,50.866585
2022-10-22T05:51:57.033Z,50.866489
2022-10-22T05:52:57.022Z,50.866470
2022-10-22T05:53:57.019Z,50.866524
2022-10-22T05:54:57.023Z,50.866554
2022-10-22T05:55:56.992Z,50.866486
2022-10-22T05:56:56.997Z,50.866673
2022-10-22T05:57:56.992Z,50.866615
2022-10-22T05:58:57.616Z,50.866604
2022-10-22T05:59:56.976Z,50.866596
2022-10-22T06:00:56.961Z,50.866634
2022-10-22T06:01:57.025Z,50.866657
2022-10-22T06:02:56.952Z,50.866684
2022-10-22T06:03:56.930Z,50.866646
2022-10-22T06:04:56.934Z,50.866604
2022-10-22T06:05:56.920Z,50.866703
2022-10-22T06:06:56.948Z,50.866669
2022-10-22T06:07:56.901Z,50.866611
2022-10-22T06:08:56.928Z,50.866692
2022-10-22T06:09:56.897Z,50.866711
2022-10-22T06:10:56.883Z,50.866734
2022-10-22T06:11:56.886Z,50.866688
2022-10-22T06:12:56.863Z,50.866653
2022-10-22T06:13:56.858Z,50.866703
2022-10-22T06:14:56.847Z,50.866623
2022-10-22T06:15:56.845Z,50.866680
2022-10-22T06:16:56.833Z,50.866718
2022-10-22T06:17:56.829Z,50.866669
2022-10-22T06:18:56.821Z,50.866699
2022-10-22T06:19:56.847Z,50.866730
2022-10-22T06:20:56.798Z,50.866711
2022-10-22T06:21:56.785Z,50.866707
2022-10-22T06:22:57.451Z,50.866684
2022-10-22T06:23:56.788Z,50.866726
2022-10-22T06:24:56.765Z,50.866753
2022-10-22T06:25:56.755Z,50.866756
2022-10-22T06:26:56.743Z,50.866753
2022-10-22T06:27:56.738Z,50.866741
2022-10-22T06:28:57.453Z,50.866756
2022-10-22T06:29:56.723Z,50.866772
2022-10-22T06:30:57.536Z,50.866779
2022-10-22T06:31:56.707Z,50.866863
2022-10-22T06:32:56.702Z,50.866768
2022-10-22T06:33:56.705Z,50.866760
2022-10-22T06:34:56.707Z,50.866726
2022-10-22T06:35:56.693Z,50.866726
2022-10-22T06:36:56.673Z,50.866707
2022-10-22T06:37:56.676Z,50.866730
2022-10-22T06:38:56.670Z,50.866737
2022-10-22T06:39:57.475Z,50.866730
2022-10-22T06:40:56.642Z,50.866673
2022-10-22T06:41:57.533Z,50.866688
2022-10-22T06:42:56.651Z,50.866611
2022-10-22T06:43:56.633Z,50.866604
2022-10-22T06:44:56.643Z,50.866714
2022-10-22T06:45:56.625Z,50.866714
2022-10-22T06:46:56.599Z,50.866772
2022-10-22T06:47:56.590Z,50.866768
2022-10-22T06:48:56.589Z,50.866764
2022-10-22T06:49:56.596Z,50.866768
2022-10-22T06:50:56.585Z,50.866711
2022-10-22T06:51:56.557Z,50.866753
2022-10-22T06:52:56.555Z,50.866718
2022-10-22T06:53:56.563Z,50.866730
2022-10-22T06:54:56.543Z,50.866741
2022-10-22T06:55:56.535Z,50.866749
2022-10-22T06:56:56.531Z,50.866764
2022-10-22T06:57:56.513Z,50.866741
2022-10-22T06:58:56.515Z,50.866699
2022-10-22T06:59:56.502Z,50.866650
2022-10-22T07:00:56.513Z,50.866703
2022-10-22T07:01:56.487Z,50.866760
2022-10-22T07:02:59.135Z,50.866787
2022-10-22T07:03:56.479Z,50.866802
2022-10-22T07:04:56.485Z,50.866833
2022-10-22T07:05:56.518Z,50.866749
2022-10-22T07:06:56.449Z,50.866646
2022-10-22T07:07:56.458Z,50.866726
2022-10-22T07:08:56.591Z,50.866737
2022-10-22T07:09:56.426Z,50.866734
2022-10-22T07:10:56.420Z,50.866730
2022-10-22T07:11:56.428Z,50.866699
2022-10-22T07:15:45.888Z,50.866867
2022-10-22T07:16:45.866Z,50.866802
2022-10-22T07:17:45.871Z,50.866764
2022-10-22T07:18:45.857Z,50.866680
2022-10-22T07:19:49.609Z,50.866673
2022-10-22T07:20:48.162Z,50.866619
2022-10-22T07:21:45.811Z,50.866718
2022-10-22T07:22:45.799Z,50.866753
2022-10-22T07:23:45.809Z,50.866688
2022-10-22T07:24:45.781Z,50.866642
2022-10-22T07:25:45.823Z,50.866669
2022-10-22T07:26:46.664Z,50.866665
2022-10-22T07:27:45.788Z,50.866596
2022-10-22T07:28:45.757Z,50.866665
2022-10-22T07:29:45.783Z,50.866692
2022-10-22T07:30:45.761Z,50.866634
2022-10-22T07:31:45.746Z,50.866699
2022-10-22T07:32:46.718Z,50.866680
2022-10-22T07:33:45.723Z,50.866642
2022-10-22T07:34:45.713Z,50.866714
2022-10-22T07:35:45.722Z,50.866680
2022-10-22T07:36:45.687Z,50.866676
2022-10-22T07:37:45.716Z,50.866768
2022-10-22T07:38:45.677Z,50.866680
2022-10-22T07:39:45.675Z,50.866600
2022-10-22T07:40:45.675Z,50.866665
2022-10-22T07:41:45.653Z,50.866623
2022-10-22T07:42:45.654Z,50.866558
2022-10-22T07:43:45.648Z,50.866634
2022-10-22T07:44:45.654Z,50.866776
2022-10-22T07:45:45.620Z,50.866734
2022-10-22T07:46:48.819Z,50.866749
2022-10-22T07:47:46.606Z,50.866844
2022-10-22T07:48:45.636Z,50.866909
2022-10-22T07:49:45.598Z,50.866859
2022-10-22T07:50:45.622Z,50.866943
2022-10-22T07:51:45.588Z,50.866489
2022-10-22T07:52:45.571Z,50.866493
2022-10-22T07:53:45.582Z,50.866615
2022-10-22T07:54:45.556Z,50.866894
2022-10-22T07:55:45.548Z,50.866810
2022-10-22T07:56:45.541Z,50.866844
2022-10-22T07:57:45.527Z,50.866905
2022-10-22T07:58:45.528Z,50.866829
2022-10-22T07:59:45.530Z,50.867039
2022-10-22T08:00:45.504Z,50.867077
2022-10-22T08:01:45.552Z,50.867004
2022-10-22T08:02:45.492Z,50.866852
2022-10-22T08:03:45.498Z,50.866806
2022-10-22T08:04:45.477Z,50.866825
2022-10-22T08:05:45.479Z,50.866890
2022-10-22T08:06:47.231Z,50.866810
2022-10-22T08:07:45.501Z,50.866848
2022-10-22T08:08:45.487Z,50.866920
2022-10-22T08:09:45.449Z,50.866779
2022-10-22T08:10:45.428Z,50.866764
2022-10-22T08:11:48.350Z,50.866756
2022-10-22T08:12:45.422Z,50.866730
2022-10-22T08:13:45.980Z,50.866600
2022-10-22T08:14:46.411Z,50.866615
2022-10-22T08:16:45.373Z,50.866615
2022-10-22T08:17:45.387Z,50.866608
2022-10-22T08:18:45.367Z,50.866657
2022-10-22T08:19:45.352Z,50.866699
2022-10-22T08:20:46.353Z,50.866726
2022-10-22T08:21:45.350Z,50.866734
2022-10-22T08:22:45.330Z,50.866768
2022-10-22T08:23:45.333Z,50.866756
2022-10-22T08:24:45.324Z,50.866741
2022-10-22T08:25:45.308Z,50.866646
2022-10-22T08:26:45.302Z,50.866688
2022-10-22T08:27:45.291Z,50.866749
2022-10-22T08:28:45.338Z,50.866692
2022-10-22T08:29:45.294Z,50.866684
2022-10-22T08:30:45.294Z,50.866810
2022-10-22T08:31:45.253Z,50.866779
2022-10-22T08:32:45.249Z,50.866791
2022-10-22T08:33:45.242Z,50.866833
2022-10-22T08:34:45.236Z,50.866909
2022-10-22T08:35:45.228Z,50.866802
2022-10-22T08:36:45.228Z,50.866905
2022-10-22T08:37:45.221Z,50.866806
2022-10-22T08:38:45.218Z,50.866650
2022-10-22T08:39:45.209Z,50.866558
2022-10-22T08:40:45.217Z,50.866634
2022-10-22T08:41:45.331Z,50.866657
2022-10-22T08:42:45.196Z,50.866722
2022-10-22T08:43:45.189Z,50.866898
2022-10-22T08:44:45.160Z,50.866894
2022-10-22T08:45:46.147Z,50.867092
2022-10-22T08:46:45.145Z,50.867100
2022-10-22T08:47:45.145Z,50.867046
2022-10-22T08:48:45.131Z,50.867085
2022-10-22T08:49:45.116Z,50.867393
2022-10-22T08:50:45.120Z,50.867088
2022-10-22T08:51:45.106Z,50.867043
2022-10-22T08:52:45.090Z,50.866920
2022-10-22T08:53:45.086Z,50.866856
2022-10-22T08:54:45.293Z,50.866768
2022-10-22T08:55:45.074Z,50.866608
2022-10-22T08:56:45.065Z,50.866646
2022-10-22T08:57:46.637Z,50.867123
2022-10-22T08:58:45.090Z,50.867069
2022-10-22T08:59:45.046Z,50.867287
2022-10-22T09:00:45.071Z,50.867298
2022-10-22T09:01:45.022Z,50.867344
2022-10-22T09:02:45.149Z,50.867447
2022-10-22T09:03:45.006Z,50.866749
2022-10-22T09:04:44.999Z,50.866737
2022-10-22T09:05:45.011Z,50.866734
2022-10-22T09:06:44.986Z,50.866707
2022-10-22T09:07:44.980Z,50.866699
2022-10-22T09:08:45.023Z,50.866676
2022-10-22T09:09:44.980Z,50.866714
2022-10-22T09:10:44.947Z,50.866730
2022-10-22T09:11:44.938Z,50.866699
2022-10-22T09:12:44.949Z,50.866688
2022-10-22T09:13:44.925Z,50.866699
2022-10-22T09:14:44.928Z,50.866714
2022-10-22T09:15:46.552Z,50.866711
2022-10-22T09:16:45.925Z,50.866737
2022-10-22T09:17:45.039Z,50.866737
2022-10-22T09:18:44.891Z,50.866745
2022-10-22T09:19:44.880Z,50.866714
2022-10-22T09:20:44.921Z,50.866657
2022-10-22T09:21:44.861Z,50.866741
2022-10-22T09:22:44.862Z,50.866726
2022-10-22T09:23:44.865Z,50.866688
2022-10-22T09:24:44.841Z,50.866695
2022-10-22T09:25:44.860Z,50.866703
2022-10-22T09:26:44.895Z,50.866756
2022-10-22T09:27:44.910Z,50.866802
2022-10-22T09:28:44.821Z,50.866722
2022-10-22T09:29:44.848Z,50.866699
2022-10-22T09:30:44.834Z,50.866699
2022-10-22T09:31:44.790Z,50.866734
2022-10-22T09:32:44.790Z,50.866714
2022-10-22T09:33:45.676Z,50.866676
2022-10-22T09:34:44.769Z,50.866749
2022-10-22T09:35:44.751Z,50.866699
2022-10-22T09:36:44.750Z,50.866722
2022-10-22T09:37:44.735Z,50.866772
2022-10-22T09:38:44.730Z,50.866772
2022-10-22T09:39:44.733Z,50.866783
2022-10-22T09:40:44.714Z,50.866737
2022-10-22T09:41:44.718Z,50.866711
2022-10-22T09:42:44.698Z,50.866783
2022-10-22T09:43:44.695Z,50.866737
2022-10-22T09:44:47.653Z,50.866898
2022-10-22T09:45:44.676Z,50.866776
2022-10-22T09:46:44.675Z,50.866940
2022-10-22T09:48:00.982Z,50.866947
2022-10-22T09:48:46.658Z,50.866760
2022-10-22T09:49:45.257Z,50.866856
2022-10-22T09:50:44.690Z,50.866817
2022-10-22T09:51:44.627Z,50.866749
2022-10-22T09:52:44.735Z,50.867004
2022-10-22T09:53:44.619Z,50.866791
2022-10-22T09:54:44.618Z,50.866673
2022-10-22T09:55:44.667Z,50.866707
2022-10-22T09:56:44.595Z,50.866760
2022-10-22T09:57:44.674Z,50.866791
2022-10-22T09:58:45.259Z,50.866852
2022-10-22T09:59:44.568Z,50.866787
2022-10-22T10:00:44.569Z,50.866798
2022-10-22T10:01:44.553Z,50.866798
2022-10-22T10:02:44.616Z,50.866772
2022-10-22T10:03:44.571Z,50.866798
2022-10-22T10:04:44.538Z,50.866791
2022-10-22T10:05:44.522Z,50.866795
2022-10-22T10:06:44.546Z,50.866772
2022-10-22T10:07:44.872Z,50.866753
2022-10-22T10:08:44.544Z,50.866798
2022-10-22T10:09:44.509Z,50.866783
2022-10-22T10:10:44.484Z,50.866817
2022-10-22T10:11:45.476Z,50.866772
2022-10-22T10:13:44.470Z,50.866787
2022-10-22T10:14:44.474Z,50.866810
2022-10-22T10:15:44.460Z,50.866791
2022-10-22T10:16:44.441Z,50.866806
2022-10-22T10:17:44.836Z,50.866817
2022-10-22T10:18:44.426Z,50.866833
2022-10-22T10:19:44.421Z,50.866817
2022-10-22T10:20:44.421Z,50.866863
2022-10-22T10:21:44.421Z,50.866852
2022-10-22T10:22:44.774Z,50.866833
2022-10-22T10:23:44.400Z,50.866795
2022-10-22T10:24:44.385Z,50.866810
2022-10-22T10:25:44.378Z,50.866787
2022-10-22T10:26:44.364Z,50.866776
2022-10-22T10:27:44.359Z,50.866764
2022-10-22T10:28:45.206Z,50.866718
2022-10-22T10:29:44.348Z,50.866749
2022-10-22T10:30:44.349Z,50.866749
2022-10-22T10:31:44.325Z,50.866798
2022-10-22T10:32:44.515Z,50.866741
2022-10-22T10:33:44.310Z,50.866737
2022-10-22T10:34:44.310Z,50.866756
2022-10-22T10:35:44.302Z,50.866756
2022-10-22T10:36:44.295Z,50.866745
2022-10-22T10:37:44.276Z,50.866741
2022-10-22T10:38:44.274Z,50.866745
2022-10-22T10:39:44.263Z,50.866730
2022-10-22T10:40:44.259Z,50.866726
2022-10-22T10:41:44.244Z,50.866734
2022-10-22T10:42:44.463Z,50.866734
2022-10-22T10:43:44.231Z,50.866734
2022-10-22T10:44:44.232Z,50.866764
2022-10-22T10:45:44.235Z,50.866753
2022-10-22T10:46:44.221Z,50.866756
2022-10-22T10:47:44.471Z,50.866749
2022-10-22T10:48:44.194Z,50.866814
2022-10-22T10:49:44.184Z,50.866802
2022-10-22T10:50:44.186Z,50.866756
2022-10-22T10:51:44.165Z,50.866772
2022-10-22T10:52:44.168Z,50.866760
2022-10-22T10:53:44.149Z,50.866779
2022-10-22T10:54:44.154Z,50.866764
2022-10-22T10:55:44.166Z,50.866760
2022-10-22T10:56:44.134Z,50.866791
2022-10-22T10:57:44.284Z,50.866753
2022-10-22T10:58:45.784Z,50.866772
2022-10-22T10:59:44.161Z,50.866776
2022-10-22T11:00:44.097Z,50.866772
2022-10-22T11:01:44.295Z,50.866806
2022-10-22T11:02:44.143Z,50.866776
2022-10-22T11:03:44.132Z,50.866734
2022-10-22T11:04:44.063Z,50.866718
2022-10-22T11:05:44.062Z,50.866760
2022-10-22T11:06:44.072Z,50.866730
2022-10-22T11:07:44.051Z,50.866764
2022-10-22T11:08:44.047Z,50.866768
2022-10-22T11:09:44.034Z,50.866745
2022-10-22T11:10:44.016Z,50.866783
2022-10-22T11:11:44.018Z,50.866772
2022-10-22T11:12:44.317Z,50.866795
2022-10-22T11:13:43.993Z,50.866814
2022-10-22T11:14:43.992Z,50.866856
2022-10-22T11:15:43.975Z,50.866787
2022-10-22T11:16:43.979Z,50.866764
2022-10-22T11:17:43.970Z,50.866829
2022-10-22T11:18:43.950Z,50.866810
2022-10-22T11:19:51.234Z,50.866734
2022-10-22T11:20:45.934Z,50.866810
2022-10-22T11:21:43.938Z,50.866764
2022-10-22T11:23:00.432Z,50.866680
2022-10-22T11:23:45.915Z,50.866627
2022-10-22T11:24:44.815Z,50.866676
2022-10-22T11:25:43.894Z,50.866680
2022-10-22T11:26:43.887Z,50.866627
2022-10-22T11:27:44.283Z,50.866604
2022-10-22T11:28:43.870Z,50.866627
2022-10-22T11:29:43.868Z,50.866634
2022-10-22T11:30:43.856Z,50.866714
2022-10-22T11:31:43.848Z,50.866699
2022-10-22T11:32:44.003Z,50.866760
2022-10-22T11:33:43.880Z,50.866650
2022-10-22T11:34:43.818Z,50.866642
2022-10-22T11:35:43.810Z,50.866653